createdAt,value
2017-11-03T00:00:17.846Z,9.20
2017-11-03T00:02:45.387Z,9.87
2017-11-03T00:05:12.923Z,8.50
2017-11-03T00:07:40.462Z,8.00
2017-11-03T00:10:07.984Z,8.10
2017-11-03T00:12:35.534Z,10.70
2017-11-03T00:15:03.059Z,10.27
2017-11-03T00:17:30.605Z,9.80
2017-11-03T00:19:58.137Z,10.83
2017-11-03T00:22:25.677Z,10.23
2017-11-03T00:24:53.203Z,10.07
2017-11-03T00:27:20.751Z,9.50
2017-11-03T00:29:48.283Z,8.73
2017-11-03T00:32:15.832Z,8.73
2017-11-03T00:34:43.354Z,8.70
2017-11-03T00:37:10.900Z,8.97
2017-11-03T00:39:38.420Z,9.90
2017-11-03T00:42:05.962Z,7.67
2017-11-03T00:44:34.245Z,7.30
2017-11-03T00:47:01.778Z,8.00
2017-11-03T00:49:29.308Z,10.00
2017-11-03T00:51:56.851Z,9.03
2017-11-03T00:54:24.370Z,8.53
2017-11-03T00:56:51.912Z,7.10
2017-11-03T00:59:20.196Z,7.60
2017-11-03T01:01:47.731Z,7.10
2017-11-03T01:04:15.250Z,7.20
2017-11-03T01:06:43.550Z,9.00
2017-11-03T01:09:11.073Z,8.67
2017-11-03T01:11:38.611Z,9.43
2017-11-03T01:14:06.128Z,8.83
2017-11-03T01:16:33.679Z,8.93
2017-11-03T01:19:01.215Z,9.53
2017-11-03T01:21:28.758Z,9.77
2017-11-03T01:23:57.048Z,9.87
2017-11-03T01:26:24.599Z,10.80
2017-11-03T01:28:52.119Z,12.20
2017-11-03T01:31:19.666Z,9.73
2017-11-03T01:33:47.194Z,11.43
2017-11-03T01:36:14.736Z,10.00
2017-11-03T01:38:42.255Z,8.20
2017-11-03T01:41:09.827Z,10.23
2017-11-03T01:43:37.346Z,7.90
2017-11-03T01:46:04.878Z,7.57
2017-11-03T01:48:32.400Z,8.13
2017-11-03T01:50:59.948Z,9.80
2017-11-03T01:53:28.255Z,11.87
2017-11-03T01:55:55.784Z,10.37
2017-11-03T01:58:24.097Z,9.30
2017-11-03T02:00:51.623Z,10.23
2017-11-03T02:03:19.939Z,10.80
2017-11-03T02:05:47.485Z,9.70
2017-11-03T02:08:15.039Z,11.20
2017-11-03T02:10:43.322Z,9.30
2017-11-03T02:13:10.862Z,8.80
2017-11-03T02:15:39.146Z,8.17
2017-11-03T02:18:07.453Z,9.50
2017-11-03T02:20:34.975Z,8.20
2017-11-03T02:23:02.517Z,12.87
2017-11-03T02:25:30.049Z,10.40
2017-11-03T02:27:57.588Z,10.73
2017-11-03T02:30:25.120Z,10.90
2017-11-03T02:32:52.668Z,10.53
2017-11-03T02:35:20.190Z,11.00
2017-11-03T02:37:47.734Z,14.70
2017-11-03T02:40:15.267Z,12.57
2017-11-03T02:42:43.577Z,12.50
2017-11-03T02:45:11.104Z,12.67
2017-11-03T02:47:39.414Z,12.13
2017-11-03T02:50:06.947Z,10.97
2017-11-03T02:52:35.258Z,10.73
2017-11-03T02:55:02.797Z,10.37
2017-11-03T02:57:30.340Z,9.67
2017-11-03T02:59:58.634Z,12.50
2017-11-03T03:02:26.943Z,11.40
2017-11-03T03:04:54.466Z,12.23
2017-11-03T03:07:22.768Z,11.30
2017-11-03T03:09:50.292Z,10.47
2017-11-03T03:12:17.837Z,9.17
2017-11-03T03:14:45.370Z,13.17
2017-11-03T03:17:12.909Z,11.80
2017-11-03T03:19:40.439Z,13.10
2017-11-03T03:22:07.978Z,10.63
2017-11-03T03:24:35.515Z,12.23
2017-11-03T03:27:03.069Z,10.57
2017-11-03T03:29:30.597Z,12.53
2017-11-03T03:31:58.902Z,14.80
2017-11-03T03:34:26.434Z,14.57
2017-11-03T03:36:54.748Z,12.07
2017-11-03T03:39:22.278Z,11.67
2017-11-03T03:41:50.582Z,11.97
2017-11-03T03:44:18.109Z,14.17
2017-11-03T03:46:46.422Z,13.00
2017-11-03T03:49:13.952Z,12.63
2017-11-03T03:51:42.263Z,13.87
2017-11-03T03:54:09.801Z,13.00
2017-11-03T03:56:38.117Z,14.80
2017-11-03T03:59:05.649Z,12.00
2017-11-03T04:01:33.191Z,13.67
2017-11-03T04:04:01.485Z,13.40
2017-11-03T04:06:29.006Z,12.03
2017-11-03T04:08:56.561Z,11.20
2017-11-03T04:11:24.096Z,10.20
2017-11-03T04:13:51.650Z,10.40
2017-11-03T04:16:19.191Z,10.80
2017-11-03T04:18:46.735Z,9.10
2017-11-03T04:21:15.036Z,9.37
2017-11-03T04:23:42.579Z,8.80
2017-11-03T04:26:10.876Z,8.83
2017-11-03T04:28:38.414Z,8.80
2017-11-03T04:31:06.703Z,9.60
2017-11-03T04:33:35.019Z,8.87
2017-11-03T04:36:02.536Z,9.13
2017-11-03T04:38:30.850Z,10.43
2017-11-03T04:40:58.376Z,13.43
2017-11-03T04:43:26.683Z,13.00
2017-11-03T04:45:54.211Z,10.70
2017-11-03T04:48:22.527Z,8.33
2017-11-03T04:50:50.047Z,8.70
2017-11-03T04:53:18.370Z,11.10
2017-11-03T04:55:45.898Z,12.17
2017-11-03T04:58:14.212Z,11.13
2017-11-03T05:00:41.748Z,10.82
2017-11-03T05:03:10.069Z,10.43
2017-11-03T05:05:37.599Z,10.77
2017-11-03T05:08:05.147Z,9.40
2017-11-03T05:10:33.434Z,9.82
2017-11-03T05:13:01.746Z,8.95
2017-11-03T05:15:29.283Z,13.47
2017-11-03T05:17:56.839Z,11.43
2017-11-03T05:20:24.374Z,10.93
2017-11-03T05:22:51.922Z,11.70
2017-11-03T05:25:19.457Z,10.63
2017-11-03T05:27:47.015Z,9.13
2017-11-03T05:30:14.555Z,10.63
2017-11-03T05:32:42.112Z,10.45
2017-11-03T05:35:09.649Z,9.93
2017-11-03T05:37:38.499Z,10.82
2017-11-03T05:40:06.028Z,11.27
2017-11-03T05:42:33.579Z,9.75
2017-11-03T05:45:01.877Z,9.35
2017-11-03T05:47:29.427Z,9.68
2017-11-03T05:49:56.959Z,12.65
2017-11-03T05:52:24.510Z,15.33
2017-11-03T05:54:52.047Z,13.52
2017-11-03T05:57:19.599Z,13.15
2017-11-03T05:59:47.136Z,11.65
2017-11-03T06:02:14.688Z,11.02
2017-11-03T06:04:42.992Z,10.32
2017-11-03T06:07:10.548Z,12.50
2017-11-03T06:09:38.088Z,10.32
2017-11-03T06:12:06.395Z,10.35
2017-11-03T06:14:33.949Z,10.68
2017-11-03T06:17:01.485Z,9.73
2017-11-03T06:19:29.803Z,9.32
2017-11-03T06:21:57.335Z,15.82
2017-11-03T06:24:25.647Z,13.13
2017-11-03T06:26:53.188Z,11.52
2017-11-03T06:29:21.519Z,12.25
2017-11-03T06:31:49.903Z,14.18
2017-11-03T06:34:17.456Z,14.23
2017-11-03T06:36:44.997Z,12.52
2017-11-03T06:39:12.547Z,11.70
2017-11-03T06:41:40.084Z,10.32
2017-11-03T06:44:08.403Z,10.50
2017-11-03T06:46:35.944Z,11.23
2017-11-03T06:49:03.498Z,10.98
2017-11-03T06:51:31.795Z,11.20
2017-11-03T06:53:59.354Z,10.93
2017-11-03T06:56:26.891Z,11.02
2017-11-03T06:58:55.327Z,9.80
2017-11-03T07:01:23.634Z,10.52
2017-11-03T07:03:51.183Z,9.67
2017-11-03T07:06:18.747Z,10.50
2017-11-03T07:08:46.309Z,12.10
2017-11-03T07:11:13.845Z,10.57
2017-11-03T07:13:41.399Z,10.90
2017-11-03T07:16:08.926Z,10.10
2017-11-03T07:18:37.226Z,9.83
2017-11-03T07:21:04.756Z,10.40
2017-11-03T07:23:33.080Z,11.20
2017-11-03T07:26:00.627Z,10.83
2017-11-03T07:28:28.181Z,10.37
2017-11-03T07:30:55.730Z,12.20
2017-11-03T07:33:23.296Z,11.07
2017-11-03T07:35:50.850Z,10.40
2017-11-03T07:38:19.187Z,11.37
2017-11-03T07:40:47.541Z,11.00
2017-11-03T07:43:15.192Z,11.23
2017-11-03T07:45:42.728Z,10.40
2017-11-03T07:48:11.034Z,9.63
2017-11-03T07:50:38.564Z,8.40
2017-11-03T07:53:06.876Z,11.00
2017-11-03T07:55:34.412Z,10.50
2017-11-03T07:58:02.732Z,10.40
2017-11-03T08:00:30.259Z,12.47
2017-11-03T08:02:57.807Z,10.33
2017-11-03T08:05:26.099Z,10.73
2017-11-03T08:07:53.653Z,11.77
2017-11-03T08:10:21.224Z,10.40
2017-11-03T08:12:48.771Z,10.20
2017-11-03T08:15:17.079Z,11.53
2017-11-03T08:17:44.633Z,11.93
2017-11-03T08:20:12.162Z,10.50
2017-11-03T08:22:40.480Z,10.97
2017-11-03T08:25:08.022Z,11.83
2017-11-03T08:27:35.555Z,12.20
2017-11-03T08:30:03.883Z,11.33
2017-11-03T08:32:31.415Z,11.70
2017-11-03T08:34:58.960Z,11.20
2017-11-03T08:37:27.255Z,13.23
2017-11-03T08:39:54.809Z,13.63
2017-11-03T08:42:22.348Z,13.57
2017-11-03T08:44:50.675Z,10.80
2017-11-03T08:47:18.205Z,11.80
2017-11-03T08:49:45.758Z,11.37
2017-11-03T08:52:14.057Z,11.80
2017-11-03T08:54:41.608Z,11.87
2017-11-03T08:57:09.142Z,12.43
2017-11-03T08:59:36.695Z,10.43
2017-11-03T09:02:04.222Z,11.10
2017-11-03T09:04:31.770Z,12.03
2017-11-03T09:06:59.303Z,12.17
2017-11-03T09:09:27.611Z,12.80
2017-11-03T09:11:55.143Z,11.60
2017-11-03T09:14:22.692Z,11.40
2017-11-03T09:16:50.988Z,12.23
2017-11-03T09:19:18.539Z,12.03
2017-11-03T09:21:46.830Z,12.20
2017-11-03T09:24:14.382Z,12.30
2017-11-03T09:26:41.908Z,13.53
2017-11-03T09:29:09.455Z,15.87
2017-11-03T09:31:36.980Z,12.97
2017-11-03T09:34:04.524Z,14.50
2017-11-03T09:36:32.059Z,15.73
2017-11-03T09:39:00.382Z,15.23
2017-11-03T09:41:27.921Z,14.70
2017-11-03T09:43:56.231Z,15.60
2017-11-03T09:46:23.764Z,17.50
2017-11-03T09:48:51.327Z,16.80
2017-11-03T09:51:18.886Z,17.10
2017-11-03T09:53:46.425Z,18.43
2017-11-03T09:56:14.722Z,18.87
2017-11-03T09:58:42.279Z,19.90
2017-11-03T10:01:10.575Z,18.97
2017-11-03T10:03:38.128Z,18.60
2017-11-03T10:06:05.660Z,19.77
2017-11-03T10:08:33.983Z,19.43
2017-11-03T10:11:01.508Z,18.10
2017-11-03T10:13:29.819Z,19.37
2017-11-03T10:15:57.355Z,17.97
2017-11-03T10:18:24.894Z,20.53
2017-11-03T10:20:53.190Z,20.27
2017-11-03T10:23:20.744Z,19.27
2017-11-03T10:25:49.035Z,19.40
2017-11-03T10:28:16.587Z,20.43
2017-11-03T10:30:44.118Z,18.10
2017-11-03T10:33:11.652Z,20.10
2017-11-03T10:35:39.204Z,19.07
2017-11-03T10:38:06.734Z,19.43
2017-11-03T10:40:34.300Z,19.40
2017-11-03T10:43:01.832Z,20.00
2017-11-03T10:45:30.151Z,19.10
2017-11-03T10:47:57.684Z,18.47
2017-11-03T10:50:25.242Z,19.93
2017-11-03T10:52:53.535Z,17.00
2017-11-03T10:55:21.859Z,20.37
2017-11-03T10:57:49.392Z,18.63
2017-11-03T11:00:16.938Z,16.17
2017-11-03T11:02:44.468Z,19.73
2017-11-03T11:05:12.786Z,16.83
2017-11-03T11:07:40.313Z,17.97
2017-11-03T11:10:08.622Z,20.30
2017-11-03T11:12:36.155Z,20.70
2017-11-03T11:15:04.475Z,19.13
2017-11-03T11:17:32.003Z,17.70
2017-11-03T11:19:59.551Z,19.10
2017-11-03T11:22:27.853Z,18.40
2017-11-03T11:24:55.409Z,20.10
2017-11-03T11:27:22.945Z,19.47
2017-11-03T11:29:51.255Z,20.30
2017-11-03T11:32:18.798Z,21.10
2017-11-03T11:34:46.342Z,18.17
2017-11-03T11:37:14.630Z,21.40
2017-11-03T11:39:42.179Z,18.90
2017-11-03T11:42:10.480Z,19.70
2017-11-03T11:44:38.267Z,21.77
2017-11-03T11:47:05.796Z,20.10
2017-11-03T11:49:33.347Z,21.13
2017-11-03T11:52:01.641Z,17.67
2017-11-03T11:54:29.184Z,20.47
2017-11-03T11:56:57.477Z,21.57
2017-11-03T11:59:25.035Z,21.00
2017-11-03T12:01:52.560Z,23.77
2017-11-03T12:04:20.115Z,23.03
2017-11-03T12:06:47.644Z,21.80
2017-11-03T12:09:15.188Z,23.37
2017-11-03T12:11:42.727Z,23.03
2017-11-03T12:14:11.044Z,25.03
2017-11-03T12:16:38.578Z,23.37
2017-11-03T12:19:06.124Z,20.80
2017-11-03T12:21:34.417Z,19.53
2017-11-03T12:24:01.962Z,19.77
2017-11-03T12:26:30.258Z,21.63
2017-11-03T12:28:57.813Z,19.00
2017-11-03T12:31:25.347Z,20.60
2017-11-03T12:33:53.674Z,21.50
2017-11-03T12:36:21.216Z,22.40
2017-11-03T12:38:48.752Z,23.77
2017-11-03T12:41:17.132Z,23.77
2017-11-03T12:43:45.432Z,24.10
2017-11-03T12:46:12.987Z,20.33
2017-11-03T12:48:41.280Z,21.93
2017-11-03T12:51:08.837Z,21.60
2017-11-03T12:53:36.365Z,23.80
2017-11-03T12:56:03.917Z,22.17
2017-11-03T12:58:31.454Z,23.70
2017-11-03T13:00:59.006Z,24.03
2017-11-03T13:03:26.534Z,22.20
2017-11-03T13:05:54.079Z,21.03
2017-11-03T13:08:22.373Z,23.03
2017-11-03T13:10:49.930Z,23.00
2017-11-03T13:13:17.527Z,23.00
2017-11-03T13:15:45.079Z,19.80
2017-11-03T13:18:12.619Z,20.47
2017-11-03T13:20:40.177Z,20.37
2017-11-03T13:23:07.711Z,21.23
2017-11-03T13:25:36.035Z,16.20
2017-11-03T13:28:03.587Z,15.17
2017-11-03T13:30:31.147Z,17.23
2017-11-03T13:32:58.697Z,19.67
2017-11-03T13:35:26.248Z,17.73
2017-11-03T13:37:54.544Z,19.43
2017-11-03T13:40:22.139Z,20.10
2017-11-03T13:42:49.671Z,19.63
2017-11-03T13:45:17.215Z,19.43
2017-11-03T13:47:44.747Z,14.40
2017-11-03T13:50:12.290Z,14.83
2017-11-03T13:52:39.820Z,16.70
2017-11-03T13:55:07.364Z,17.40
2017-11-03T13:57:34.895Z,21.53
2017-11-03T14:00:03.223Z,19.03
2017-11-03T14:02:30.756Z,17.73
2017-11-03T14:04:58.302Z,19.53
2017-11-03T14:07:26.602Z,20.50
2017-11-03T14:09:54.151Z,20.50
2017-11-03T14:12:22.447Z,18.57
2017-11-03T14:14:49.995Z,18.97
2017-11-03T14:17:17.528Z,21.10
2017-11-03T14:19:45.843Z,19.37
2017-11-03T14:22:13.366Z,19.37
2017-11-03T14:24:41.690Z,17.80
2017-11-03T14:27:09.226Z,19.93
2017-11-03T14:29:37.549Z,22.17
2017-11-03T14:32:05.081Z,20.73
2017-11-03T14:34:32.634Z,19.60
2017-11-03T14:37:00.163Z,22.33
2017-11-03T14:39:27.720Z,21.33
2017-11-03T14:41:55.253Z,21.73
2017-11-03T14:44:22.819Z,20.73
2017-11-03T14:46:50.349Z,16.87
2017-11-03T14:49:17.883Z,18.47
2017-11-03T14:51:45.436Z,17.30
2017-11-03T14:54:13.732Z,20.40
2017-11-03T14:56:41.297Z,20.00
2017-11-03T14:59:08.831Z,17.10
2017-11-03T15:01:37.158Z,21.10
2017-11-03T15:04:04.707Z,19.70
2017-11-03T15:06:32.251Z,18.03
2017-11-03T15:09:00.547Z,20.83
2017-11-03T15:11:28.101Z,17.90
2017-11-03T15:13:55.648Z,12.50
2017-11-03T15:16:23.235Z,13.30
2017-11-03T15:18:50.760Z,11.10
2017-11-03T15:21:19.075Z,10.17
2017-11-03T15:23:46.603Z,17.77
2017-11-03T15:26:14.924Z,14.80
2017-11-03T15:28:42.451Z,13.60
2017-11-03T15:31:10.004Z,11.70
2017-11-03T15:33:38.292Z,11.33
2017-11-03T15:36:05.838Z,11.70
2017-11-03T15:38:34.127Z,12.23
2017-11-03T15:41:01.683Z,12.00
2017-11-03T15:43:29.982Z,12.00
2017-11-03T15:45:57.532Z,10.30
2017-11-03T15:48:25.069Z,11.20
2017-11-03T15:50:53.384Z,14.30
2017-11-03T15:53:20.910Z,13.80
2017-11-03T15:55:49.220Z,14.17
2017-11-03T15:58:16.751Z,12.90
2017-11-03T16:00:45.068Z,15.07
2017-11-03T16:03:12.600Z,13.00
2017-11-03T16:05:40.913Z,11.73
2017-11-03T16:08:08.448Z,14.60
2017-11-03T16:10:36.013Z,12.80
2017-11-03T16:13:03.552Z,14.40
2017-11-03T16:15:31.884Z,11.20
2017-11-03T16:17:59.418Z,13.70
2017-11-03T16:20:26.971Z,11.70
2017-11-03T16:22:54.495Z,11.43
2017-11-03T16:25:22.035Z,9.10
2017-11-03T16:27:49.559Z,8.77
2017-11-03T16:30:17.103Z,9.97
2017-11-03T16:32:45.391Z,12.47
2017-11-03T16:35:12.947Z,12.30
2017-11-03T16:37:40.479Z,13.60
2017-11-03T16:40:08.026Z,12.57
2017-11-03T16:42:35.551Z,10.63
2017-11-03T16:45:05.391Z,12.87
2017-11-03T16:47:32.921Z,13.30
2017-11-03T16:50:00.476Z,13.53
2017-11-03T16:52:28.013Z,11.90
2017-11-03T16:54:56.338Z,10.80
2017-11-03T16:57:23.868Z,10.50
2017-11-03T16:59:51.407Z,11.47
2017-11-03T17:02:18.952Z,9.33
2017-11-03T17:04:46.491Z,9.10
2017-11-03T17:07:14.039Z,11.73
2017-11-03T17:09:41.571Z,10.93
2017-11-03T17:12:09.889Z,11.67
2017-11-03T17:14:37.418Z,9.87
2017-11-03T17:17:04.964Z,9.93
2017-11-03T17:19:33.270Z,10.50
2017-11-03T17:22:00.823Z,10.30
2017-11-03T17:24:28.351Z,9.77
2017-11-03T17:26:56.662Z,11.03
2017-11-03T17:29:24.196Z,10.80
2017-11-03T17:31:52.513Z,12.63
2017-11-03T17:34:20.034Z,12.80
2017-11-03T17:36:48.352Z,12.17
2017-11-03T17:39:15.889Z,14.30
2017-11-03T17:41:43.445Z,10.97
2017-11-03T17:44:10.983Z,11.30
2017-11-03T17:46:39.305Z,10.90
2017-11-03T17:49:06.853Z,12.40
2017-11-03T17:51:34.398Z,10.47
2017-11-03T17:54:02.685Z,8.10
2017-11-03T17:56:30.291Z,12.33
2017-11-03T17:58:57.824Z,12.20
2017-11-03T18:01:25.370Z,12.40
2017-11-03T18:03:52.960Z,11.20
2017-11-03T18:06:20.511Z,11.40
2017-11-03T18:08:48.095Z,11.77
2017-11-03T18:11:15.694Z,12.53
2017-11-03T18:13:43.983Z,10.80
2017-11-03T18:16:11.528Z,14.77
2017-11-03T18:18:39.885Z,13.80
2017-11-03T18:21:07.427Z,16.30
2017-11-03T18:23:34.959Z,16.17
2017-11-03T18:26:02.509Z,19.40
2017-11-03T18:28:30.041Z,15.93
2017-11-03T18:30:57.572Z,13.23
2017-11-03T18:33:25.170Z,14.20
2017-11-03T18:35:53.459Z,16.97
2017-11-03T18:38:21.772Z,15.33
2017-11-03T18:40:49.299Z,13.73
2017-11-03T18:43:17.616Z,15.77
2017-11-03T18:45:45.165Z,14.23
2017-11-03T18:48:12.715Z,14.37
2017-11-03T18:50:40.295Z,15.93
2017-11-03T18:53:07.844Z,12.73
2017-11-03T18:55:35.416Z,13.53
2017-11-03T18:58:03.026Z,11.70
2017-11-03T19:00:31.376Z,8.53
2017-11-03T19:02:58.927Z,12.47
2017-11-03T19:05:26.451Z,9.47
2017-11-03T19:07:53.999Z,8.47
2017-11-03T19:10:22.334Z,8.33
2017-11-03T19:12:49.880Z,10.33
2017-11-03T19:15:17.466Z,13.38
2017-11-03T19:17:45.016Z,12.17
2017-11-03T19:20:12.543Z,12.17
2017-11-03T19:22:40.147Z,13.23
2017-11-03T19:25:07.721Z,15.00
2017-11-03T19:27:35.309Z,12.93
2017-11-03T19:30:02.895Z,12.17
2017-11-03T19:32:30.507Z,14.00
2017-11-03T19:34:58.035Z,13.67
2017-11-03T19:37:25.579Z,13.80
2017-11-03T19:39:53.106Z,13.80
2017-11-03T19:42:21.475Z,15.00
2017-11-03T19:44:49.781Z,13.83
2017-11-03T19:47:17.328Z,14.20
2017-11-03T19:49:45.675Z,13.23
2017-11-03T19:52:13.279Z,14.50
2017-11-03T19:54:40.859Z,13.80
2017-11-03T19:57:08.467Z,13.50
2017-11-03T19:59:35.999Z,13.80
2017-11-03T20:02:03.550Z,12.80
2017-11-03T20:04:31.131Z,13.87
2017-11-03T20:06:58.675Z,13.73
2017-11-03T20:09:26.967Z,14.20
2017-11-03T20:11:54.516Z,12.20
2017-11-03T20:14:22.095Z,16.30
2017-11-03T20:16:49.702Z,14.40
2017-11-03T20:19:17.240Z,12.90
2017-11-03T20:21:44.839Z,12.60
2017-11-03T20:24:12.415Z,12.27
2017-11-03T20:26:39.966Z,11.77
2017-11-03T20:29:07.543Z,12.53
2017-11-03T20:31:35.068Z,13.67
2017-11-03T20:34:02.681Z,13.13
2017-11-03T20:36:30.264Z,14.20
2017-11-03T20:38:57.866Z,17.67
2017-11-03T20:41:25.450Z,18.07
2017-11-03T20:43:53.053Z,16.37
2017-11-03T20:46:20.581Z,16.20
2017-11-03T20:48:48.180Z,13.97
2017-11-03T20:51:16.475Z,15.00
2017-11-03T20:53:44.785Z,12.27
2017-11-03T20:56:12.364Z,13.50
2017-11-03T20:58:39.962Z,13.03
2017-11-03T21:01:12.295Z,20.43
2017-11-03T21:03:39.843Z,15.57
2017-11-03T21:06:07.370Z,13.23
2017-11-03T21:08:34.924Z,13.53
2017-11-03T21:11:03.272Z,17.07
2017-11-03T21:13:30.820Z,16.97
2017-11-03T21:15:58.398Z,16.10
2017-11-03T21:18:25.947Z,14.83
2017-11-03T21:20:53.534Z,16.83
2017-11-03T21:23:21.129Z,14.60
2017-11-03T21:25:48.710Z,14.10
2017-11-03T21:28:16.261Z,12.17
2017-11-03T21:30:43.840Z,10.63
2017-11-03T21:33:11.393Z,15.30
2017-11-03T21:35:38.918Z,12.27
2017-11-03T21:38:07.237Z,14.57
2017-11-03T21:40:34.817Z,14.80
2017-11-03T21:43:02.363Z,14.13
2017-11-03T21:45:29.890Z,14.20
2017-11-03T21:47:58.254Z,15.93
2017-11-03T21:50:25.826Z,16.60
2017-11-03T21:52:54.149Z,14.57
2017-11-03T21:55:21.731Z,15.73
2017-11-03T21:57:49.326Z,14.60
2017-11-03T22:00:16.902Z,16.57
2017-11-03T22:02:45.306Z,15.87
2017-11-03T22:05:12.886Z,12.73
2017-11-03T22:07:40.435Z,15.30
2017-11-03T22:10:07.958Z,14.17
2017-11-03T22:12:35.553Z,14.57
2017-11-03T22:15:03.135Z,10.33
2017-11-03T22:17:30.686Z,16.60
2017-11-03T22:19:58.262Z,10.70
2017-11-03T22:22:25.811Z,11.50
2017-11-03T22:24:53.331Z,9.50
2017-11-03T22:27:20.876Z,9.47
2017-11-03T22:29:48.450Z,9.33
2017-11-03T22:32:15.998Z,9.80
2017-11-03T22:34:43.524Z,11.33
2017-11-03T22:37:11.132Z,16.57
2017-11-03T22:39:38.665Z,17.50
2017-11-03T22:42:06.277Z,15.80
2017-11-03T22:44:34.591Z,14.77
2017-11-03T22:47:02.118Z,12.80
2017-11-03T22:49:30.431Z,9.85
2017-11-03T22:51:57.997Z,12.27
2017-11-03T22:54:25.551Z,12.00
2017-11-03T22:56:53.121Z,13.23
2017-11-03T22:59:21.094Z,11.70
2017-11-03T23:01:48.624Z,12.37
2017-11-03T23:04:16.158Z,14.93
2017-11-03T23:06:43.683Z,13.03
2017-11-03T23:09:11.265Z,9.67
2017-11-03T23:11:38.787Z,9.97
2017-11-03T23:14:07.095Z,9.20
2017-11-03T23:16:34.620Z,8.57
2017-11-03T23:19:02.930Z,9.60
2017-11-03T23:21:30.450Z,9.70
2017-11-03T23:23:57.997Z,11.73
2017-11-03T23:26:25.519Z,12.00
2017-11-03T23:28:53.068Z,14.23
2017-11-03T23:31:20.600Z,16.70
2017-11-03T23:33:48.139Z,16.67
2017-11-03T23:36:15.669Z,17.83
2017-11-03T23:38:43.218Z,15.77
2017-11-03T23:41:10.751Z,15.83
2017-11-03T23:43:38.295Z,15.60
2017-11-03T23:46:05.824Z,14.57
2017-11-03T23:48:33.381Z,15.40
2017-11-03T23:51:00.912Z,12.83
2017-11-03T23:53:28.481Z,15.70
2017-11-03T23:55:56.024Z,12.43
2017-11-03T23:58:23.569Z,13.17
